Terminal Aerodrome Forecast
Issued by NWS

Home | Current Version | Previous Version | Text Only | Print | Product List | Glossary On
Versions: 1 2 3 4 5 6 7 8 9 10 11 12 13 14 15 16 17 18 19
000
FTUS46 KPQR 170311 AAA
TAFONP
TAF AMD
KONP 170311Z 1703/1724 34010KT P6SM SKC
     FM170600 03003KT 3SM BR OVC007
     FM171600 36007KT P6SM BKN015
     FM171900 35014G20KT P6SM SCT015=

USA.gov is the U.S. government's official web portal to all federal, state and local government web resources and services.